Time;durP1;ratioP1;P1;durP2;ratioP2;P2;SDS_P1;SDS_P2;PMS_P1;PMS_P2;Temp;Humidity;BMP_temperature;BMP_pressure;BME280_temperature;BME280_humidity;BME280_pressure;Samples;Min_cycle;Max_cycle;Signal;HPM_P1;HPM_P2
2022/03/30 00:00:57;;;;;;;13.63;5.83;;;;;;;3.00;70.83;100101.41;5012372;28;20325;-73
2022/03/30 00:03:25;;;;;;;8.97;5.53;;;;;;;2.97;71.41;100102.38;5012267;28;20569;-73
2022/03/30 00:05:51;;;;;;;10.53;5.30;;;;;;;2.93;71.68;100103.41;4998990;28;20295;-72
2022/03/30 00:08:18;;;;;;;9.13;5.20;;;;;;;2.87;70.88;100093.13;4992130;28;20739;-73
2022/03/30 00:10:44;;;;;;;11.07;4.53;;;;;;;2.82;71.55;100095.13;4991897;28;20199;-73
2022/03/30 00:13:11;;;;;;;12.97;5.47;;;;;;;2.78;71.21;100093.53;4992537;28;20212;-73
2022/03/30 00:15:38;;;;;;;9.83;5.33;;;;;;;2.75;70.98;100096.28;4992084;28;20581;-73
2022/03/30 00:18:04;;;;;;;12.00;4.17;;;;;;;2.71;71.10;100090.28;4992162;28;20207;-73
2022/03/30 00:20:32;;;;;;;7.13;4.43;;;;;;;2.66;71.31;100094.88;4992153;28;20207;-72
2022/03/30 00:22:59;;;;;;;9.77;4.90;;;;;;;2.59;70.51;100093.41;4992243;28;20203;-72
2022/03/30 00:25:26;;;;;;;11.77;4.90;;;;;;;2.52;70.38;100091.06;4991492;28;20199;-72
2022/03/30 00:27:52;;;;;;;8.10;3.77;;;;;;;2.45;70.86;100093.09;4990829;28;20207;-73
2022/03/30 00:30:21;;;;;;;9.73;5.13;;;;;;;2.41;71.02;100091.50;4991437;28;20236;-73
2022/03/30 00:32:48;;;;;;;9.47;4.70;;;;;;;2.37;71.31;100084.63;4989889;28;20204;-73
2022/03/30 00:35:15;;;;;;;10.07;4.20;;;;;;;2.36;71.46;100093.44;4986945;28;20203;-73
2022/03/30 00:37:43;;;;;;;8.83;3.87;;;;;;;2.31;71.59;100088.38;4991186;28;20234;-73
2022/03/30 00:40:13;;;;;;;10.03;4.47;;;;;;;2.29;71.73;100089.34;4990782;28;20207;-72
2022/03/30 00:42:39;;;;;;;9.50;4.80;;;;;;;2.27;72.39;100089.41;4989465;28;20207;-72
2022/03/30 00:45:10;;;;;;;9.53;5.00;;;;;;;2.25;71.65;100085.97;4996332;28;20243;-73
2022/03/30 00:47:38;;;;;;;10.20;4.60;;;;;;;2.23;71.75;100089.56;4977219;28;20266;-72
2022/03/30 00:50:06;;;;;;;9.00;4.37;;;;;;;2.21;72.28;100080.88;4980960;28;20853;-73
2022/03/30 00:52:33;;;;;;;8.67;4.27;;;;;;;2.18;72.39;100083.63;4983506;28;20208;-73
2022/03/30 00:55:01;;;;;;;6.67;4.10;;;;;;;2.12;71.45;100076.00;4986682;28;20208;-73
2022/03/30 00:57:29;;;;;;;8.07;4.23;;;;;;;2.06;71.94;100075.31;4999067;28;20598;-72
2022/03/30 00:59:56;;;;;;;9.07;4.60;;;;;;;2.04;71.76;100077.13;4991507;28;20219;-73
2022/03/30 01:02:24;;;;;;;10.63;4.47;;;;;;;2.00;71.76;100074.66;4991226;28;20215;-73
2022/03/30 01:04:51;;;;;;;9.27;4.50;;;;;;;1.98;71.90;100072.09;4991314;28;20770;-73
2022/03/30 01:07:18;;;;;;;10.07;5.00;;;;;;;1.95;72.05;100066.97;4990999;28;20282;-73
2022/03/30 01:09:44;;;;;;;8.13;4.60;;;;;;;1.92;71.92;100063.59;4991271;28;20605;-72
2022/03/30 01:12:13;;;;;;;7.93;4.53;;;;;;;1.87;71.88;100068.16;4991181;28;20223;-73
2022/03/30 01:14:40;;;;;;;9.57;4.90;;;;;;;1.82;72.38;100063.06;4991127;28;20214;-73
2022/03/30 01:17:07;;;;;;;11.83;3.93;;;;;;;1.78;71.79;100064.13;4990923;28;20259;-73
2022/03/30 01:19:34;;;;;;;5.20;3.33;;;;;;;1.70;71.44;100060.91;4990563;28;20204;-73
2022/03/30 01:22:02;;;;;;;4.80;2.90;;;;;;;1.59;71.08;100057.84;4990677;28;20207;-73
2022/03/30 01:24:29;;;;;;;7.70;4.20;;;;;;;1.51;71.63;100044.97;4990960;28;20207;-73
2022/03/30 01:26:55;;;;;;;6.97;3.33;;;;;;;1.48;71.86;100052.09;4989842;28;20227;-73
2022/03/30 01:32:29;;;;;;;9.07;4.03;;;;;;;1.44;72.29;100045.22;4971172;28;20211;-73
2022/03/30 01:34:57;;;;;;;6.60;3.70;;;;;;;1.42;72.29;100040.06;4989212;28;20262;-72
2022/03/30 01:37:27;;;;;;;11.60;3.77;;;;;;;1.42;72.58;100040.06;4986068;28;20226;-73
2022/03/30 01:39:54;;;;;;;5.60;3.93;;;;;;;1.41;72.68;100038.34;4973956;28;20196;-72
2022/03/30 01:42:20;;;;;;;10.97;4.17;;;;;;;1.39;72.62;100033.16;4971059;28;20211;-73
2022/03/30 01:44:48;;;;;;;8.27;3.80;;;;;;;1.39;72.57;100030.53;4970782;28;20582;-73
2022/03/30 01:47:15;;;;;;;8.73;3.47;;;;;;;1.39;73.04;100025.28;4971793;28;20238;-72
2022/03/30 01:49:42;;;;;;;7.80;4.20;;;;;;;1.38;72.81;100022.72;4983523;28;20234;-73
2022/03/30 01:52:10;;;;;;;9.57;4.10;;;;;;;1.36;73.00;100025.41;4987778;28;20214;-73
2022/03/30 01:54:39;;;;;;;11.07;3.60;;;;;;;1.33;72.98;100020.25;4985120;28;20219;-74
2022/03/30 01:57:07;;;;;;;10.30;4.20;;;;;;;1.28;72.81;100019.53;4989790;28;20223;-74
2022/03/30 01:59:34;;;;;;;9.53;4.97;;;;;;;1.26;72.66;100015.25;4989377;28;20204;-74
2022/03/30 02:02:02;;;;;;;8.47;2.93;;;;;;;1.19;72.69;100017.25;4990075;28;20214;-73
2022/03/30 02:04:29;;;;;;;8.20;3.10;;;;;;;1.13;72.73;100017.47;4980672;28;20662;-74
2022/03/30 02:06:55;;;;;;;7.80;3.83;;;;;;;1.05;72.14;100011.66;4986153;28;20246;-73
2022/03/30 02:09:22;;;;;;;7.57;3.97;;;;;;;0.98;72.74;100003.13;5003305;28;20237;-73
2022/03/30 02:11:50;;;;;;;7.90;3.80;;;;;;;0.96;73.10;100006.72;4992960;28;20210;-74
2022/03/30 02:14:17;;;;;;;8.03;4.00;;;;;;;0.95;73.60;99997.13;4987753;28;20254;-73
2022/03/30 02:16:44;;;;;;;6.50;3.43;;;;;;;0.94;73.61;99993.66;4978660;28;20624;-74
2022/03/30 02:19:11;;;;;;;7.07;3.30;;;;;;;0.90;73.45;99994.66;4970758;28;20207;-73
2022/03/30 02:21:38;;;;;;;13.03;3.70;;;;;;;0.86;73.67;99998.31;4979659;28;20425;-74
2022/03/30 02:24:06;;;;;;;7.00;3.40;;;;;;;0.82;73.99;99999.31;4981837;28;20295;-73
2022/03/30 02:26:33;;;;;;;6.33;3.77;;;;;;;0.81;74.34;99994.13;4972873;28;20256;-73
2022/03/30 02:29:01;;;;;;;6.47;3.30;;;;;;;0.79;74.09;99988.94;4983249;28;20223;-74
2022/03/30 02:31:27;;;;;;;8.17;3.77;;;;;;;0.80;74.18;99989.78;4989241;28;20200;-73
2022/03/30 02:33:54;;;;;;;8.77;3.63;;;;;;;0.81;74.85;99991.50;4989538;28;20685;-74
2022/03/30 02:36:20;;;;;;;10.47;3.93;;;;;;;0.82;74.63;99987.97;4985604;28;20223;-73
2022/03/30 02:38:47;;;;;;;11.63;4.07;;;;;;;0.83;74.96;99977.44;4989877;28;20207;-73
2022/03/30 02:41:14;;;;;;;11.27;3.13;;;;;;;0.83;75.14;99976.59;4983111;28;20559;-73
2022/03/30 02:43:41;;;;;;;9.00;3.60;;;;;;;0.81;75.12;99984.50;4973328;28;20709;-73
2022/03/30 02:46:08;;;;;;;8.93;3.37;;;;;;;0.79;74.99;99980.22;4987333;28;20231;-72
2022/03/30 02:48:37;;;;;;;10.10;3.67;;;;;;;0.76;75.24;99977.69;4989592;28;20216;-74
2022/03/30 02:51:05;;;;;;;8.43;3.17;;;;;;;0.73;74.88;99981.28;4974687;28;20677;-74
2022/03/30 02:53:33;;;;;;;7.30;3.30;;;;;;;0.70;75.32;99973.53;4984562;28;20208;-74
2022/03/30 02:56:00;;;;;;;6.30;3.13;;;;;;;0.65;74.92;99967.59;4989349;28;20231;-74
2022/03/30 02:58:27;;;;;;;8.90;3.10;;;;;;;0.62;75.16;99965.94;4989187;28;20261;-73
2022/03/30 03:00:54;;;;;;;6.90;3.60;;;;;;;0.60;75.15;99964.25;4989563;28;20219;-74
2022/03/30 03:03:23;;;;;;;11.40;3.90;;;;;;;0.57;75.48;99962.59;4989534;28;20211;-73
2022/03/30 03:05:50;;;;;;;10.40;3.87;;;;;;;0.55;75.36;99961.78;4989083;28;20228;-74
2022/03/30 03:08:17;;;;;;;8.33;3.33;;;;;;;0.52;75.31;99961.06;4989395;28;20211;-73
2022/03/30 03:10:45;;;;;;;7.40;3.40;;;;;;;0.47;75.35;99958.59;4989258;28;20218;-73
2022/03/30 03:13:13;;;;;;;8.30;3.10;;;;;;;0.45;75.42;99965.63;4989365;28;20692;-74
2022/03/30 03:15:40;;;;;;;7.53;3.47;;;;;;;0.42;75.48;99960.47;4989031;28;20593;-73
2022/03/30 03:18:08;;;;;;;5.63;3.13;;;;;;;0.39;75.60;99952.72;4988722;28;20299;-74
2022/03/30 03:20:36;;;;;;;9.27;3.13;;;;;;;0.37;75.65;99949.28;4989254;28;20604;-74
2022/03/30 03:23:04;;;;;;;4.63;2.50;;;;;;;0.34;75.56;99946.81;4989095;28;20203;-73
2022/03/30 03:25:32;;;;;;;9.17;3.33;;;;;;;0.32;75.74;99938.13;4980730;28;20205;-74
2022/03/30 03:28:00;;;;;;;8.10;3.60;;;;;;;0.30;75.95;99937.31;4970210;28;20215;-74
2022/03/30 03:30:27;;;;;;;8.70;3.60;;;;;;;0.30;75.98;99934.72;4972470;28;20227;-72
2022/03/30 03:32:53;;;;;;;8.23;3.43;;;;;;;0.28;75.90;99937.38;4986591;28;20207;-73
2022/03/30 03:35:20;;;;;;;5.60;2.67;;;;;;;0.25;75.95;99932.22;4987766;28;20677;-74
2022/03/30 03:37:48;;;;;;;9.97;3.07;;;;;;;0.21;75.88;99941.09;4995059;28;20911;-73
2022/03/30 03:40:16;;;;;;;9.57;3.70;;;;;;;0.19;76.37;99940.28;4992160;28;20210;-73
2022/03/30 03:42:42;;;;;;;8.67;3.10;;;;;;;0.17;76.25;99930.78;4993179;28;20211;-73
2022/03/30 03:45:09;;;;;;;9.97;3.03;;;;;;;0.13;76.41;99930.03;4995864;28;20258;-73
2022/03/30 03:47:36;;;;;;;9.40;3.40;;;;;;;0.10;76.02;99926.63;4982478;28;20235;-73
2022/03/30 03:50:03;;;;;;;5.10;2.93;;;;;;;0.04;76.10;99929.44;4985797;28;20224;-73
2022/03/30 03:52:31;;;;;;;6.33;2.77;;;;;;;-0.03;75.98;99921.81;4993758;28;20199;-73
2022/03/30 03:54:59;;;;;;;6.73;2.80;;;;;;;-0.09;75.93;99923.75;4999771;28;20206;-73
2022/03/30 03:57:25;;;;;;;7.47;3.20;;;;;;;-0.13;76.59;99911.66;4992411;28;20225;-74
2022/03/30 03:59:52;;;;;;;7.53;3.47;;;;;;;-0.15;76.65;99910.84;4990564;28;20207;-73
2022/03/30 04:02:19;;;;;;;8.00;3.87;;;;;;;-0.14;76.85;99902.94;4984743;28;20212;-73
2022/03/30 04:04:45;;;;;;;12.57;4.80;;;;;;;-0.13;76.95;99903.81;4984171;28;20779;-72
2022/03/30 04:07:12;;;;;;;10.93;4.50;;;;;;;-0.11;77.48;99908.09;4992485;28;20223;-73
2022/03/30 04:09:40;;;;;;;11.70;4.73;;;;;;;-0.10;77.67;99899.34;4985291;28;20234;-73
2022/03/30 04:12:09;;;;;;;8.70;5.03;;;;;;;-0.06;77.73;99895.72;4992891;28;20208;-73
2022/03/30 04:14:36;;;;;;;10.83;5.50;;;;;;;-0.01;77.97;99898.19;4987691;28;20212;-72
2022/03/30 04:17:02;;;;;;;11.87;5.53;;;;;;;0.02;78.69;99892.84;4994085;28;20236;-73
2022/03/30 04:19:29;;;;;;;11.93;5.20;;;;;;;0.04;78.39;99887.56;4996028;28;20588;-74
2022/03/30 04:21:56;;;;;;;11.80;5.80;;;;;;;0.06;79.12;99877.91;4992862;28;20748;-72
2022/03/30 04:24:23;;;;;;;16.97;5.60;;;;;;;0.08;79.12;99882.19;4993293;28;20449;-73
2022/03/30 04:26:49;;;;;;;11.47;4.90;;;;;;;0.11;79.61;99876.84;4995956;28;20223;-73
2022/03/30 04:29:17;;;;;;;9.07;5.30;;;;;;;0.13;79.79;99869.81;4997333;28;20238;-74
2022/03/30 04:31:44;;;;;;;12.30;5.27;;;;;;;0.15;80.07;99875.84;4991185;28;20566;-73
2022/03/30 04:34:10;;;;;;;14.77;6.27;;;;;;;0.16;79.91;99872.31;4991647;28;20200;-74
2022/03/30 04:36:37;;;;;;;12.47;6.17;;;;;;;0.17;80.36;99875.81;4992755;28;20250;-72
2022/03/30 04:39:05;;;;;;;14.53;5.93;;;;;;;0.18;80.68;99875.72;4992664;28;20208;-73
2022/03/30 04:41:31;;;;;;;14.47;7.63;;;;;;;0.20;80.81;99881.75;4988401;28;20219;-73
2022/03/30 04:43:58;;;;;;;14.03;7.17;;;;;;;0.22;80.87;99882.56;4987976;28;20204;-72
2022/03/30 04:46:26;;;;;;;16.57;7.17;;;;;;;0.25;81.13;99886.84;4983452;28;20236;-73
2022/03/30 04:48:52;;;;;;;14.37;7.33;;;;;;;0.25;81.53;99882.47;4988248;28;20290;-72
2022/03/30 04:51:19;;;;;;;20.33;7.83;;;;;;;0.27;81.54;99879.81;4988036;28;20509;-72
2022/03/30 04:53:45;;;;;;;13.93;7.53;;;;;;;0.29;81.80;99875.38;4987914;28;20219;-73
2022/03/30 04:56:12;;;;;;;24.73;8.03;;;;;;;0.31;82.00;99873.56;4986463;28;20751;-73
2022/03/30 04:58:38;;;;;;;13.30;7.20;;;;;;;0.35;82.14;99872.56;4984448;28;20207;-73
2022/03/30 05:01:05;;;;;;;14.67;7.37;;;;;;;0.40;82.37;99872.38;4986036;28;20600;-73
2022/03/30 05:03:33;;;;;;;23.17;9.77;;;;;;;0.43;82.36;99873.13;4986230;28;20222;-73
2022/03/30 05:05:59;;;;;;;15.57;7.33;;;;;;;0.45;82.60;99870.47;4989102;28;20241;-73
2022/03/30 05:08:26;;;;;;;13.93;7.43;;;;;;;0.48;82.61;99865.13;4984841;28;20318;-73
2022/03/30 05:10:52;;;;;;;13.60;7.43;;;;;;;0.50;82.53;99856.31;4988144;28;20234;-73
2022/03/30 05:13:19;;;;;;;14.93;7.83;;;;;;;0.53;82.75;99865.84;4985224;28;20214;-73
2022/03/30 05:15:45;;;;;;;16.60;7.70;;;;;;;0.53;82.94;99864.06;4986522;28;20207;-74
2022/03/30 05:18:12;;;;;;;13.63;7.07;;;;;;;0.53;82.91;99860.59;4987531;28;20203;-73
2022/03/30 05:20:43;;;;;;;16.00;7.03;;;;;;;0.53;83.02;99864.06;4988939;28;20203;-72
2022/03/30 05:23:09;;;;;;;16.00;7.63;;;;;;;0.54;83.09;99863.13;4987250;28;20208;-73
2022/03/30 05:25:37;;;;;;;10.70;6.47;;;;;;;0.56;83.12;99863.94;4984351;28;20223;-73
2022/03/30 05:28:04;;;;;;;13.77;6.47;;;;;;;0.57;83.15;99865.66;4988614;28;20208;-73
2022/03/30 05:30:30;;;;;;;9.50;5.50;;;;;;;0.59;83.48;99866.44;4988063;28;20223;-73
2022/03/30 05:32:57;;;;;;;15.47;6.43;;;;;;;0.60;83.22;99852.44;4988087;28;20218;-72
2022/03/30 05:35:23;;;;;;;13.80;6.40;;;;;;;0.61;83.48;99848.91;4989353;28;20218;-74
2022/03/30 05:37:51;;;;;;;12.83;6.60;;;;;;;0.64;83.44;99848.81;4989562;28;20461;-74
2022/03/30 05:40:18;;;;;;;13.03;6.57;;;;;;;0.67;83.48;99859.19;4989511;28;20210;-73
2022/03/30 05:42:45;;;;;;;16.23;6.43;;;;;;;0.70;83.59;99863.47;4993072;28;20199;-75
2022/03/30 05:45:12;;;;;;;12.77;6.00;;;;;;;0.73;83.82;99868.56;5001985;28;20199;-74
2022/03/30 05:47:39;;;;;;;11.00;6.27;;;;;;;0.77;83.80;99871.94;5009637;28;20247;-73
2022/03/30 05:50:08;;;;;;;12.73;6.27;;;;;;;0.78;83.59;99866.66;5000282;28;20227;-74
2022/03/30 05:52:35;;;;;;;14.33;7.53;;;;;;;0.83;84.02;99863.88;4996358;28;20202;-74
2022/03/30 05:55:03;;;;;;;14.07;7.17;;;;;;;0.85;83.78;99857.66;5001627;28;20278;-73
2022/03/30 05:57:29;;;;;;;11.77;6.97;;;;;;;0.89;83.82;99850.56;5009698;28;20230;-74
2022/03/30 05:59:58;;;;;;;14.70;7.07;;;;;;;0.91;83.89;99844.31;5005001;28;20299;-74
2022/03/30 06:02:24;;;;;;;17.90;8.00;;;;;;;0.95;83.94;99860.81;4990670;28;20250;-73
2022/03/30 06:04:53;;;;;;;12.67;6.70;;;;;;;1.00;84.21;99857.09;4990325;28;20199;-73
2022/03/30 06:07:20;;;;;;;16.57;7.87;;;;;;;1.04;83.96;99860.47;4989922;28;20282;-74
2022/03/30 06:09:47;;;;;;;11.93;7.13;;;;;;;1.09;83.92;99862.91;4990066;28;20254;-74
2022/03/30 06:12:14;;;;;;;20.37;6.97;;;;;;;1.10;83.88;99860.22;4990323;28;20219;-74
2022/03/30 06:14:42;;;;;;;14.23;6.87;;;;;;;1.13;83.74;99854.03;4990075;28;20704;-74
2022/03/30 06:17:09;;;;;;;15.60;7.63;;;;;;;1.14;84.05;99859.22;4990048;28;20899;-74
2022/03/30 06:19:36;;;;;;;15.20;8.00;;;;;;;1.18;84.06;99854.72;4989780;28;20443;-73
2022/03/30 06:22:08;;;;;;;13.90;8.37;;;;;;;1.21;84.12;99851.97;4991283;28;20208;-74
2022/03/30 06:24:35;;;;;;;19.13;7.90;;;;;;;1.27;84.36;99852.56;5001191;28;20281;-75
2022/03/30 06:27:02;;;;;;;17.07;7.53;;;;;;;1.33;84.33;99857.59;5001520;28;20230;-74
2022/03/30 06:29:30;;;;;;;15.40;8.40;;;;;;;1.38;84.17;99860.91;5004083;28;20207;-73
2022/03/30 06:31:57;;;;;;;17.67;7.93;;;;;;;1.45;84.26;99863.28;5009468;28;20207;-73
2022/03/30 06:34:23;;;;;;;14.83;7.50;;;;;;;1.52;84.21;99862.13;5001638;28;20199;-74
2022/03/30 06:36:50;;;;;;;16.40;8.60;;;;;;;1.58;84.35;99861.91;4989520;28;20716;-74
2022/03/30 06:39:16;;;;;;;19.43;8.40;;;;;;;1.63;84.82;99863.41;4988947;28;20203;-74
2022/03/30 06:41:44;;;;;;;15.80;8.40;;;;;;;1.72;84.38;99859.59;4989998;28;20609;-73
2022/03/30 06:44:11;;;;;;;15.23;8.90;;;;;;;1.78;84.79;99854.09;4990001;28;20211;-74
2022/03/30 06:46:39;;;;;;;23.67;10.37;;;;;;;1.85;84.75;99854.69;4989533;28;20239;-74
2022/03/30 06:49:06;;;;;;;21.33;10.17;;;;;;;1.93;84.48;99850.00;4989612;28;20211;-74
2022/03/30 06:51:33;;;;;;;22.23;11.80;;;;;;;2.00;85.03;99844.41;4989660;28;20720;-74
2022/03/30 06:53:59;;;;;;;21.47;11.47;;;;;;;2.07;85.11;99845.88;4989634;28;20211;-75
2022/03/30 06:56:26;;;;;;;29.20;10.90;;;;;;;2.16;84.72;99849.88;4989108;28;20246;-74
2022/03/30 06:58:53;;;;;;;24.03;11.40;;;;;;;2.23;84.97;99853.97;4989727;28;20212;-74
2022/03/30 07:01:20;;;;;;;27.20;11.57;;;;;;;2.30;85.06;99849.34;4989399;28;20689;-74
2022/03/30 07:03:48;;;;;;;24.60;10.80;;;;;;;2.35;84.42;99857.84;4989419;28;20207;-75
2022/03/30 07:06:14;;;;;;;23.23;11.97;;;;;;;2.40;84.60;99854.13;4989036;28;20234;-74
2022/03/30 07:11:25;;;;;;;18.87;11.43;;;;;;;2.55;84.24;99849.13;4989776;28;20318;-74
2022/03/30 07:13:52;;;;;;;24.57;12.47;;;;;;;2.60;83.90;99855.88;4989596;28;20218;-75
2022/03/30 07:16:19;;;;;;;19.70;11.20;;;;;;;2.69;83.95;99855.47;4989197;28;20228;-75
2022/03/30 07:18:46;;;;;;;24.07;11.03;;;;;;;2.77;83.74;99857.78;4989286;28;20685;-74
2022/03/30 07:21:14;;;;;;;23.17;11.40;;;;;;;2.84;84.48;99850.50;4989286;28;20215;-75
2022/03/30 07:23:40;;;;;;;22.23;12.00;;;;;;;2.94;84.58;99851.78;4989158;28;20215;-73
2022/03/30 07:26:07;;;;;;;17.10;11.20;;;;;;;3.04;84.07;99851.31;4989102;28;20729;-74
2022/03/30 07:28:35;;;;;;;22.20;11.60;;;;;;;3.18;84.65;99857.72;4989151;28;20204;-74
2022/03/30 07:31:02;;;;;;;19.67;11.47;;;;;;;3.29;84.25;99856.28;4989506;28;20275;-74
2022/03/30 07:33:29;;;;;;;22.90;10.90;;;;;;;3.41;84.36;99852.22;4989369;28;20602;-74
2022/03/30 07:35:56;;;;;;;19.67;9.00;;;;;;;3.48;83.17;99854.50;4989563;28;20235;-75
2022/03/30 07:38:24;;;;;;;14.87;9.50;;;;;;;3.56;83.58;99850.66;4988856;28;20282;-74
2022/03/30 07:40:52;;;;;;;18.60;9.13;;;;;;;3.61;82.30;99857.41;4989110;28;20211;-75
2022/03/30 07:43:19;;;;;;;18.03;8.83;;;;;;;3.67;82.11;99846.59;4989032;28;20216;-74
2022/03/30 07:45:46;;;;;;;18.37;8.50;;;;;;;3.74;82.55;99839.25;4989115;28;20302;-74
2022/03/30 07:48:13;;;;;;;11.67;7.80;;;;;;;3.80;81.49;99838.94;4988959;28;20207;-74
2022/03/30 07:50:40;;;;;;;16.70;8.33;;;;;;;3.84;81.41;99833.47;4989364;28;20220;-74
2022/03/30 07:53:08;;;;;;;17.27;8.37;;;;;;;3.91;81.62;99833.16;4993992;28;20215;-74
2022/03/30 07:55:38;;;;;;;13.13;7.67;;;;;;;3.96;81.43;99826.72;4992707;28;20562;-74
2022/03/30 07:58:05;;;;;;;16.30;7.40;;;;;;;4.02;80.54;99831.69;4992680;28;20211;-74
2022/03/30 08:00:31;;;;;;;15.83;8.10;;;;;;;4.08;80.27;99820.88;4992894;28;20716;-74
2022/03/30 08:02:58;;;;;;;15.23;7.90;;;;;;;4.17;80.51;99830.09;4992536;28;20206;-73
2022/03/30 08:05:25;;;;;;;15.97;7.63;;;;;;;4.26;79.94;99823.50;4993038;28;20207;-74
2022/03/30 08:07:52;;;;;;;15.53;7.43;;;;;;;4.34;79.54;99823.94;4992546;28;20709;-74
2022/03/30 08:10:19;;;;;;;14.80;6.87;;;;;;;4.39;79.21;99819.31;4992758;28;20230;-74
2022/03/30 08:12:47;;;;;;;14.17;7.37;;;;;;;4.47;78.92;99828.53;4992806;28;20221;-74
2022/03/30 08:15:14;;;;;;;14.67;6.90;;;;;;;4.54;78.44;99826.44;4992546;28;20203;-74
2022/03/30 08:17:42;;;;;;;11.73;6.13;;;;;;;4.62;77.95;99834.81;4992357;28;20235;-74
2022/03/30 08:20:11;;;;;;;11.17;5.53;;;;;;;4.69;77.46;99828.25;4993973;28;20666;-74
2022/03/30 08:22:36;;;;;;;11.87;5.50;;;;;;;4.75;77.18;99837.66;4992958;28;20218;-74
2022/03/30 08:25:07;;;;;;;12.57;6.07;;;;;;;4.81;76.67;99827.63;4993826;28;20207;-74
2022/03/30 08:27:35;;;;;;;11.97;4.73;;;;;;;4.87;76.24;99829.94;4993422;28;20228;-74
2022/03/30 08:30:05;;;;;;;8.27;3.40;;;;;;;4.90;75.22;99831.56;4994024;28;20407;-74
2022/03/30 08:32:32;;;;;;;11.60;4.13;;;;;;;4.92;74.50;99819.16;4994012;28;20659;-74
2022/03/30 08:35:03;;;;;;;7.87;5.17;;;;;;;4.99;74.01;99828.44;4993802;28;20204;-74
2022/03/30 08:37:29;;;;;;;9.97;4.73;;;;;;;5.05;73.41;99828.09;4992949;28;20598;-74
2022/03/30 08:39:56;;;;;;;13.53;4.20;;;;;;;5.13;72.96;99827.69;4994447;28;20567;-74
2022/03/30 08:42:23;;;;;;;9.27;4.20;;;;;;;5.18;72.42;99829.16;4990961;28;20203;-74
2022/03/30 08:44:50;;;;;;;13.07;4.90;;;;;;;5.27;71.99;99829.59;4994898;28;20211;-75
2022/03/30 08:47:18;;;;;;;8.67;4.20;;;;;;;5.35;71.48;99830.88;5000138;28;20235;-73
2022/03/30 08:49:47;;;;;;;11.57;4.17;;;;;;;5.41;71.23;99827.88;4996910;28;20226;-74
2022/03/30 08:52:14;;;;;;;8.03;4.30;;;;;;;5.48;70.78;99836.34;4986864;28;20231;-74
2022/03/30 08:54:43;;;;;;;11.73;4.53;;;;;;;5.54;70.48;99836.00;4990534;28;20222;-74
2022/03/30 08:57:10;;;;;;;10.07;4.57;;;;;;;5.62;70.07;99830.28;4991186;28;20279;-74
2022/03/30 08:59:37;;;;;;;8.30;3.77;;;;;;;5.69;69.54;99827.22;4990242;28;20203;-75
2022/03/30 09:02:04;;;;;;;10.23;4.30;;;;;;;5.78;69.50;99828.47;4990133;28;20199;-74
2022/03/30 09:04:32;;;;;;;9.60;3.97;;;;;;;5.85;68.98;99825.41;4989880;28;20319;-76
2022/03/30 09:07:00;;;;;;;6.97;3.90;;;;;;;5.95;68.87;99822.25;4989543;28;20231;-74
2022/03/30 09:09:29;;;;;;;6.43;3.20;;;;;;;6.03;68.44;99817.38;4989911;28;20673;-74
2022/03/30 09:11:56;;;;;;;7.83;3.20;;;;;;;6.09;67.78;99817.88;4987150;28;20235;-74
2022/03/30 09:14:26;;;;;;;11.03;3.90;;;;;;;6.12;67.21;99812.41;4990108;28;20215;-75
2022/03/30 09:16:54;;;;;;;10.23;3.87;;;;;;;6.19;66.97;99819.06;4991186;28;20242;-75
2022/03/30 09:19:21;;;;;;;6.03;3.10;;;;;;;6.28;66.79;99810.56;4991512;28;20684;-74
2022/03/30 09:21:52;;;;;;;6.40;3.27;;;;;;;6.39;66.47;99817.88;4988800;28;20782;-74
2022/03/30 09:24:21;;;;;;;8.13;3.30;;;;;;;6.48;65.70;99816.47;4986139;28;20215;-75
2022/03/30 09:26:48;;;;;;;8.70;3.60;;;;;;;6.54;65.15;99811.66;4990838;28;20234;-78
2022/03/30 09:29:15;;;;;;;9.93;3.50;;;;;;;6.61;64.98;99810.38;5012099;28;20398;-75
2022/03/30 09:31:43;;;;;;;12.37;3.20;;;;;;;6.67;64.84;99811.78;4994509;28;20585;-75
2022/03/30 09:34:10;;;;;;;11.67;3.73;;;;;;;6.75;63.85;99806.88;5002759;28;20233;-75
2022/03/30 09:36:38;;;;;;;10.07;3.87;;;;;;;6.81;63.59;99805.63;5002703;28;20234;-75
2022/03/30 09:39:08;;;;;;;8.03;3.70;;;;;;;6.86;63.18;99799.13;5002250;28;20212;-75
2022/03/30 09:41:52;;;;;;;12.20;5.70;;;;;;;6.91;62.93;99798.84;4998494;28;20196;-74
2022/03/30 09:44:19;;;;;;;14.43;6.83;;;;;;;6.99;62.79;99795.75;4998753;28;20198;-75
2022/03/30 09:46:54;;;;;;;10.00;5.90;;;;;;;7.06;62.40;99791.75;5001217;28;20239;-76
2022/03/30 09:49:36;;;;;;;13.97;6.10;;;;;;;7.17;62.41;99795.41;4996261;28;20203;-76
2022/03/30 09:52:10;;;;;;;11.67;5.90;;;;;;;7.29;62.40;99789.34;4999432;28;20227;-74
2022/03/30 09:54:40;;;;;;;11.43;6.47;;;;;;;7.40;61.70;99790.47;4991298;28;20222;-75
2022/03/30 09:57:15;;;;;;;11.17;6.17;;;;;;;7.48;61.50;99783.72;4990932;28;20230;-76
2022/03/30 10:00:02;;;;;;;8.33;4.97;;;;;;;7.58;60.29;99784.81;4991210;28;20570;-75
2022/03/30 10:02:31;;;;;;;10.50;4.33;;;;;;;7.69;59.38;99776.19;4991288;28;20710;-75
2022/03/30 10:04:59;;;;;;;12.47;5.43;;;;;;;7.76;58.92;99769.53;4990790;28;20218;-75
2022/03/30 10:07:28;;;;;;;9.33;4.77;;;;;;;7.85;58.87;99768.09;4990390;28;20720;-75
2022/03/30 10:09:58;;;;;;;8.97;4.93;;;;;;;7.93;58.96;99771.06;4991229;28;20508;-75
2022/03/30 10:12:26;;;;;;;10.37;5.07;;;;;;;7.99;59.32;99765.38;5004375;28;20266;-75
2022/03/30 10:14:54;;;;;;;10.33;3.93;;;;;;;8.08;58.27;99766.53;4989994;28;20219;-75
2022/03/30 10:17:22;;;;;;;7.87;3.67;;;;;;;8.15;57.52;99762.53;4989984;28;20231;-76
2022/03/30 10:19:52;;;;;;;15.60;4.60;;;;;;;8.21;57.40;99762.97;4990383;28;20235;-75
2022/03/30 10:22:34;;;;;;;8.90;3.77;;;;;;;8.27;57.46;99759.88;4989298;28;20250;-76
2022/03/30 10:25:11;;;;;;;8.80;3.50;;;;;;;8.35;57.04;99754.97;4989335;28;20281;-76
2022/03/30 10:27:50;;;;;;;11.83;4.03;;;;;;;8.44;56.51;99753.47;4988874;28;20384;-76
2022/03/30 10:30:24;;;;;;;9.13;3.23;;;;;;;8.53;55.97;99746.69;4989417;28;20206;-75
2022/03/30 10:32:55;;;;;;;10.70;3.67;;;;;;;8.56;55.42;99744.66;4989218;28;20227;-76
2022/03/30 10:35:22;;;;;;;7.07;3.50;;;;;;;8.58;55.13;99745.41;4989443;28;20215;-75
2022/03/30 10:37:58;;;;;;;9.27;2.90;;;;;;;8.65;55.17;99743.16;4988953;28;20227;-76
2022/03/30 10:40:27;;;;;;;8.10;3.50;;;;;;;8.73;54.53;99742.66;4988989;28;20218;-75
2022/03/30 10:43:02;;;;;;;10.10;3.30;;;;;;;8.75;54.07;99744.25;4989193;28;20230;-76
2022/03/30 10:45:34;;;;;;;10.57;3.30;;;;;;;8.81;54.43;99735.81;5000715;28;20285;-76
2022/03/30 10:48:09;;;;;;;7.83;3.13;;;;;;;8.92;54.25;99737.75;5008289;28;20211;-76
2022/03/30 10:50:36;;;;;;;10.37;3.30;;;;;;;8.99;54.12;99729.22;5004809;28;20198;-76
2022/03/30 10:53:04;;;;;;;8.57;3.10;;;;;;;9.05;53.63;99728.78;4997827;28;20410;-76
2022/03/30 10:55:38;;;;;;;7.33;3.57;;;;;;;9.11;53.16;99716.88;4988768;28;20219;-76
2022/03/30 10:58:06;;;;;;;11.60;3.30;;;;;;;9.19;52.73;99717.16;4988818;28;20207;-76
2022/03/30 11:00:36;;;;;;;6.30;2.83;;;;;;;9.25;52.33;99713.22;4989285;28;20203;-76
2022/03/30 11:03:14;;;;;;;9.67;3.83;;;;;;;9.31;53.14;99710.97;4991169;28;20549;-75
2022/03/30 11:05:44;;;;;;;11.20;3.60;;;;;;;9.41;53.13;99713.78;4990256;28;20216;-76
2022/03/30 11:08:45;;;;;;;7.07;3.10;;;;;;;9.46;52.00;99711.66;4991271;28;20422;-76
2022/03/30 11:11:24;;;;;;;7.13;3.37;;;;;;;9.50;52.48;99718.41;4991338;28;20202;-75
2022/03/30 11:14:11;;;;;;;9.57;3.60;;;;;;;9.56;51.95;99709.16;4990893;28;20438;-76
2022/03/30 11:16:49;;;;;;;12.50;3.93;;;;;;;9.63;51.52;99703.28;4989676;28;20223;-75
2022/03/30 11:19:15;;;;;;;10.90;5.07;;;;;;;9.69;51.40;99694.81;4989040;28;20272;-76
2022/03/30 11:21:53;;;;;;;7.10;3.70;;;;;;;9.75;51.17;99688.22;4990090;28;20214;-75
2022/03/30 11:24:21;;;;;;;8.17;3.47;;;;;;;9.82;51.03;99685.94;4990249;28;20203;-76
2022/03/30 11:27:20;;;;;;;8.37;4.67;;;;;;;9.92;50.91;99686.94;4992244;28;20224;-76
2022/03/30 11:30:03;;;;;;;9.80;4.17;;;;;;;10.02;50.22;99690.59;4997383;28;20234;-76
2022/03/30 11:32:41;;;;;;;10.97;4.57;;;;;;;10.08;49.61;99687.44;4992500;28;20259;-76
2022/03/30 11:35:11;;;;;;;9.53;6.17;;;;;;;10.11;49.37;99676.59;4997255;28;20217;-76
2022/03/30 11:37:39;;;;;;;10.70;5.00;;;;;;;10.18;49.39;99687.63;4999250;28;20219;-75
2022/03/30 11:40:08;;;;;;;9.80;5.07;;;;;;;10.20;49.63;99681.25;5011288;28;20573;-76
2022/03/30 11:42:36;;;;;;;13.70;5.13;;;;;;;10.24;49.07;99677.34;5011953;28;20207;-76
2022/03/30 11:45:15;;;;;;;10.53;4.17;;;;;;;10.29;49.18;99679.66;4998824;28;20573;-76